sensor_id;sensor_type;location;lat;lon;timestamp;P1;durP1;ratioP1;P2;durP2;ratioP2
50976;SDS011;36992;48.200;12.418;2022-08-19T00:00:37;1.85;;;1.02;;
50976;SDS011;36992;48.200;12.418;2022-08-19T00:03:04;2.40;;;1.02;;
50976;SDS011;36992;48.200;12.418;2022-08-19T00:05:33;1.90;;;1.30;;
50976;SDS011;36992;48.200;12.418;2022-08-19T00:07:59;2.60;;;1.08;;
50976;SDS011;36992;48.200;12.418;2022-08-19T00:10:26;1.73;;;1.00;;
50976;SDS011;36992;48.200;12.418;2022-08-19T00:12:53;2.40;;;1.75;;
50976;SDS011;36992;48.200;12.418;2022-08-19T00:15:20;3.38;;;2.42;;
50976;SDS011;36992;48.200;12.418;2022-08-19T00:17:47;3.20;;;2.55;;
50976;SDS011;36992;48.200;12.418;2022-08-19T00:20:15;4.22;;;2.13;;
50976;SDS011;36992;48.200;12.418;2022-08-19T00:22:45;3.45;;;2.65;;
50976;SDS011;36992;48.200;12.418;2022-08-19T00:25:12;3.55;;;1.67;;
50976;SDS011;36992;48.200;12.418;2022-08-19T00:27:39;2.17;;;1.58;;
50976;SDS011;36992;48.200;12.418;2022-08-19T00:30:06;3.38;;;2.10;;
50976;SDS011;36992;48.200;12.418;2022-08-19T00:32:35;4.55;;;2.00;;
50976;SDS011;36992;48.200;12.418;2022-08-19T00:35:02;2.58;;;1.73;;
50976;SDS011;36992;48.200;12.418;2022-08-19T00:37:30;3.10;;;2.00;;
50976;SDS011;36992;48.200;12.418;2022-08-19T00:39:59;4.63;;;2.97;;
50976;SDS011;36992;48.200;12.418;2022-08-19T00:42:26;5.00;;;2.70;;
50976;SDS011;36992;48.200;12.418;2022-08-19T00:44:54;2.80;;;1.77;;
50976;SDS011;36992;48.200;12.418;2022-08-19T00:47:20;3.10;;;2.00;;
50976;SDS011;36992;48.200;12.418;2022-08-19T00:49:47;2.80;;;1.40;;
50976;SDS011;36992;48.200;12.418;2022-08-19T00:52:18;4.60;;;2.28;;
50976;SDS011;36992;48.200;12.418;2022-08-19T00:54:47;3.15;;;2.00;;
50976;SDS011;36992;48.200;12.418;2022-08-19T00:57:17;3.55;;;2.55;;
50976;SDS011;36992;48.200;12.418;2022-08-19T00:59:48;3.70;;;2.35;;
50976;SDS011;36992;48.200;12.418;2022-08-19T01:02:20;3.20;;;1.90;;
50976;SDS011;36992;48.200;12.418;2022-08-19T01:04:46;4.05;;;2.67;;
50976;SDS011;36992;48.200;12.418;2022-08-19T01:07:13;2.50;;;1.45;;
50976;SDS011;36992;48.200;12.418;2022-08-19T01:09:39;4.13;;;2.03;;
50976;SDS011;36992;48.200;12.418;2022-08-19T01:12:06;3.60;;;1.73;;
50976;SDS011;36992;48.200;12.418;2022-08-19T01:14:35;2.92;;;1.55;;
50976;SDS011;36992;48.200;12.418;2022-08-19T01:17:04;1.85;;;1.20;;
50976;SDS011;36992;48.200;12.418;2022-08-19T01:19:33;4.70;;;1.90;;
50976;SDS011;36992;48.200;12.418;2022-08-19T01:22:03;2.60;;;1.35;;
50976;SDS011;36992;48.200;12.418;2022-08-19T01:24:38;3.33;;;1.73;;
50976;SDS011;36992;48.200;12.418;2022-08-19T01:27:05;2.33;;;1.55;;
50976;SDS011;36992;48.200;12.418;2022-08-19T01:29:33;2.30;;;1.50;;
50976;SDS011;36992;48.200;12.418;2022-08-19T01:32:00;2.65;;;1.65;;
50976;SDS011;36992;48.200;12.418;2022-08-19T01:34:27;3.33;;;1.77;;
50976;SDS011;36992;48.200;12.418;2022-08-19T01:36:53;2.70;;;1.67;;
50976;SDS011;36992;48.200;12.418;2022-08-19T01:39:22;5.35;;;2.42;;
50976;SDS011;36992;48.200;12.418;2022-08-19T01:41:51;3.45;;;2.00;;
50976;SDS011;36992;48.200;12.418;2022-08-19T01:44:19;2.20;;;1.52;;
50976;SDS011;36992;48.200;12.418;2022-08-19T01:46:49;2.65;;;1.70;;
50976;SDS011;36992;48.200;12.418;2022-08-19T01:49:17;3.20;;;2.03;;
50976;SDS011;36992;48.200;12.418;2022-08-19T01:51:46;4.65;;;2.22;;
50976;SDS011;36992;48.200;12.418;2022-08-19T01:54:13;2.33;;;1.05;;
50976;SDS011;36992;48.200;12.418;2022-08-19T01:56:41;2.58;;;1.63;;
50976;SDS011;36992;48.200;12.418;2022-08-19T01:59:10;3.22;;;2.15;;
50976;SDS011;36992;48.200;12.418;2022-08-19T02:01:39;3.85;;;2.45;;
50976;SDS011;36992;48.200;12.418;2022-08-19T02:04:05;3.47;;;2.03;;
50976;SDS011;36992;48.200;12.418;2022-08-19T02:06:32;2.38;;;1.65;;
50976;SDS011;36992;48.200;12.418;2022-08-19T02:08:59;2.90;;;1.90;;
50976;SDS011;36992;48.200;12.418;2022-08-19T02:11:27;2.42;;;1.30;;
50976;SDS011;36992;48.200;12.418;2022-08-19T02:13:57;2.88;;;1.30;;
50976;SDS011;36992;48.200;12.418;2022-08-19T02:16:26;1.30;;;0.80;;
50976;SDS011;36992;48.200;12.418;2022-08-19T02:18:52;1.70;;;1.05;;
50976;SDS011;36992;48.200;12.418;2022-08-19T02:21:21;1.55;;;1.10;;
50976;SDS011;36992;48.200;12.418;2022-08-19T02:23:49;1.88;;;1.13;;
50976;SDS011;36992;48.200;12.418;2022-08-19T02:26:16;1.95;;;1.40;;
50976;SDS011;36992;48.200;12.418;2022-08-19T02:28:43;2.85;;;1.75;;
50976;SDS011;36992;48.200;12.418;2022-08-19T02:31:10;2.13;;;1.40;;
50976;SDS011;36992;48.200;12.418;2022-08-19T02:33:39;1.88;;;1.23;;
50976;SDS011;36992;48.200;12.418;2022-08-19T02:36:06;1.92;;;1.30;;
50976;SDS011;36992;48.200;12.418;2022-08-19T02:38:34;2.65;;;0.88;;
50976;SDS011;36992;48.200;12.418;2022-08-19T02:41:03;1.33;;;0.70;;
50976;SDS011;36992;48.200;12.418;2022-08-19T02:43:32;1.88;;;0.95;;
50976;SDS011;36992;48.200;12.418;2022-08-19T02:46:01;1.63;;;0.88;;
50976;SDS011;36992;48.200;12.418;2022-08-19T02:48:28;1.23;;;0.75;;
50976;SDS011;36992;48.200;12.418;2022-08-19T02:50:56;1.48;;;0.77;;
50976;SDS011;36992;48.200;12.418;2022-08-19T02:53:23;1.65;;;0.85;;
50976;SDS011;36992;48.200;12.418;2022-08-19T02:55:50;1.67;;;0.60;;
50976;SDS011;36992;48.200;12.418;2022-08-19T02:58:18;1.08;;;0.60;;
50976;SDS011;36992;48.200;12.418;2022-08-19T03:00:45;1.85;;;1.23;;
50976;SDS011;36992;48.200;12.418;2022-08-19T03:03:13;1.55;;;0.82;;
50976;SDS011;36992;48.200;12.418;2022-08-19T03:05:40;1.58;;;0.77;;
50976;SDS011;36992;48.200;12.418;2022-08-19T03:08:09;1.73;;;0.90;;
50976;SDS011;36992;48.200;12.418;2022-08-19T03:10:40;1.17;;;0.80;;
50976;SDS011;36992;48.200;12.418;2022-08-19T03:13:10;2.08;;;0.73;;
50976;SDS011;36992;48.200;12.418;2022-08-19T03:15:41;1.73;;;1.10;;
50976;SDS011;36992;48.200;12.418;2022-08-19T03:18:09;2.15;;;1.20;;
50976;SDS011;36992;48.200;12.418;2022-08-19T03:20:40;1.55;;;0.63;;
50976;SDS011;36992;48.200;12.418;2022-08-19T03:23:09;1.95;;;1.10;;
50976;SDS011;36992;48.200;12.418;2022-08-19T03:25:36;2.88;;;1.10;;
50976;SDS011;36992;48.200;12.418;2022-08-19T03:28:05;1.85;;;1.10;;
50976;SDS011;36992;48.200;12.418;2022-08-19T03:30:32;1.80;;;0.80;;
50976;SDS011;36992;48.200;12.418;2022-08-19T03:32:58;1.92;;;0.90;;
50976;SDS011;36992;48.200;12.418;2022-08-19T03:35:25;1.42;;;0.77;;
50976;SDS011;36992;48.200;12.418;2022-08-19T03:37:52;1.30;;;0.70;;
50976;SDS011;36992;48.200;12.418;2022-08-19T03:40:20;1.23;;;0.52;;
50976;SDS011;36992;48.200;12.418;2022-08-19T03:42:46;1.48;;;0.70;;
50976;SDS011;36992;48.200;12.418;2022-08-19T03:45:15;1.60;;;0.73;;
50976;SDS011;36992;48.200;12.418;2022-08-19T03:47:41;2.00;;;0.90;;
50976;SDS011;36992;48.200;12.418;2022-08-19T03:50:08;1.60;;;0.82;;
50976;SDS011;36992;48.200;12.418;2022-08-19T03:52:35;1.90;;;0.90;;
50976;SDS011;36992;48.200;12.418;2022-08-19T03:55:02;2.80;;;0.95;;
50976;SDS011;36992;48.200;12.418;2022-08-19T03:57:31;2.35;;;1.05;;
50976;SDS011;36992;48.200;12.418;2022-08-19T03:59:58;1.45;;;0.70;;
50976;SDS011;36992;48.200;12.418;2022-08-19T04:02:25;1.77;;;1.00;;
50976;SDS011;36992;48.200;12.418;2022-08-19T04:04:53;1.45;;;0.75;;
50976;SDS011;36992;48.200;12.418;2022-08-19T04:07:19;1.58;;;0.80;;
50976;SDS011;36992;48.200;12.418;2022-08-19T04:09:46;1.30;;;0.50;;
50976;SDS011;36992;48.200;12.418;2022-08-19T04:12:13;2.20;;;0.80;;
50976;SDS011;36992;48.200;12.418;2022-08-19T04:14:41;1.98;;;1.48;;
50976;SDS011;36992;48.200;12.418;2022-08-19T04:17:07;1.67;;;0.82;;
50976;SDS011;36992;48.200;12.418;2022-08-19T04:19:34;1.40;;;0.50;;
50976;SDS011;36992;48.200;12.418;2022-08-19T04:22:01;1.30;;;0.77;;
50976;SDS011;36992;48.200;12.418;2022-08-19T04:24:29;3.33;;;0.65;;
50976;SDS011;36992;48.200;12.418;2022-08-19T04:26:55;1.27;;;0.65;;
50976;SDS011;36992;48.200;12.418;2022-08-19T04:29:24;1.45;;;0.70;;
50976;SDS011;36992;48.200;12.418;2022-08-19T04:31:53;1.70;;;0.80;;
50976;SDS011;36992;48.200;12.418;2022-08-19T04:34:22;1.52;;;0.68;;
50976;SDS011;36992;48.200;12.418;2022-08-19T04:36:51;1.27;;;0.70;;
50976;SDS011;36992;48.200;12.418;2022-08-19T04:39:20;1.15;;;0.65;;
50976;SDS011;36992;48.200;12.418;2022-08-19T04:41:48;1.67;;;0.68;;
50976;SDS011;36992;48.200;12.418;2022-08-19T04:44:32;1.15;;;0.65;;
50976;SDS011;36992;48.200;12.418;2022-08-19T04:47:02;1.27;;;0.52;;
50976;SDS011;36992;48.200;12.418;2022-08-19T04:49:30;1.38;;;0.70;;
50976;SDS011;36992;48.200;12.418;2022-08-19T04:51:57;1.35;;;0.68;;
50976;SDS011;36992;48.200;12.418;2022-08-19T04:54:24;1.45;;;0.80;;
50976;SDS011;36992;48.200;12.418;2022-08-19T04:56:51;1.48;;;0.75;;
50976;SDS011;36992;48.200;12.418;2022-08-19T04:59:18;1.58;;;0.80;;
50976;SDS011;36992;48.200;12.418;2022-08-19T05:01:46;1.70;;;0.80;;
50976;SDS011;36992;48.200;12.418;2022-08-19T05:04:16;1.33;;;0.63;;
50976;SDS011;36992;48.200;12.418;2022-08-19T05:06:45;1.27;;;0.63;;
50976;SDS011;36992;48.200;12.418;2022-08-19T05:09:12;1.17;;;0.60;;
50976;SDS011;36992;48.200;12.418;2022-08-19T05:11:38;1.23;;;0.60;;
50976;SDS011;36992;48.200;12.418;2022-08-19T05:14:05;3.28;;;1.00;;
50976;SDS011;36992;48.200;12.418;2022-08-19T05:16:33;1.20;;;0.60;;
50976;SDS011;36992;48.200;12.418;2022-08-19T05:18:59;1.40;;;0.80;;
50976;SDS011;36992;48.200;12.418;2022-08-19T05:21:45;1.75;;;0.68;;
50976;SDS011;36992;48.200;12.418;2022-08-19T05:24:30;1.67;;;0.70;;
50976;SDS011;36992;48.200;12.418;2022-08-19T05:26:59;1.52;;;0.70;;
50976;SDS011;36992;48.200;12.418;2022-08-19T05:29:27;1.70;;;1.30;;
50976;SDS011;36992;48.200;12.418;2022-08-19T05:31:56;2.20;;;0.60;;
50976;SDS011;36992;48.200;12.418;2022-08-19T05:34:23;2.50;;;1.02;;
50976;SDS011;36992;48.200;12.418;2022-08-19T05:36:53;1.98;;;1.20;;
50976;SDS011;36992;48.200;12.418;2022-08-19T05:39:23;2.92;;;0.82;;
50976;SDS011;36992;48.200;12.418;2022-08-19T05:41:52;1.42;;;0.77;;
50976;SDS011;36992;48.200;12.418;2022-08-19T05:44:22;2.05;;;1.10;;
50976;SDS011;36992;48.200;12.418;2022-08-19T05:46:49;1.80;;;0.90;;
50976;SDS011;36992;48.200;12.418;2022-08-19T05:49:18;2.38;;;1.35;;
50976;SDS011;36992;48.200;12.418;2022-08-19T05:51:46;2.10;;;0.95;;
50976;SDS011;36992;48.200;12.418;2022-08-19T05:54:14;3.03;;;1.23;;
50976;SDS011;36992;48.200;12.418;2022-08-19T05:56:41;1.95;;;1.00;;
50976;SDS011;36992;48.200;12.418;2022-08-19T05:59:09;4.20;;;1.15;;
50976;SDS011;36992;48.200;12.418;2022-08-19T06:01:37;1.80;;;0.88;;
50976;SDS011;36992;48.200;12.418;2022-08-19T06:04:05;1.45;;;0.75;;
50976;SDS011;36992;48.200;12.418;2022-08-19T06:06:32;3.60;;;1.20;;
50976;SDS011;36992;48.200;12.418;2022-08-19T06:08:59;1.25;;;0.52;;
50976;SDS011;36992;48.200;12.418;2022-08-19T06:11:33;2.92;;;0.80;;
50976;SDS011;36992;48.200;12.418;2022-08-19T06:16:29;1.60;;;0.90;;
50976;SDS011;36992;48.200;12.418;2022-08-19T06:19:00;1.52;;;0.93;;
50976;SDS011;36992;48.200;12.418;2022-08-19T06:21:29;2.03;;;1.50;;
50976;SDS011;36992;48.200;12.418;2022-08-19T06:23:56;2.75;;;1.23;;
50976;SDS011;36992;48.200;12.418;2022-08-19T06:26:23;1.92;;;1.10;;
50976;SDS011;36992;48.200;12.418;2022-08-19T06:28:51;1.92;;;1.00;;
50976;SDS011;36992;48.200;12.418;2022-08-19T06:31:19;3.05;;;1.05;;
50976;SDS011;36992;48.200;12.418;2022-08-19T06:33:47;1.15;;;0.73;;
50976;SDS011;36992;48.200;12.418;2022-08-19T06:36:22;1.80;;;0.88;;
50976;SDS011;36992;48.200;12.418;2022-08-19T06:38:52;3.03;;;1.45;;
50976;SDS011;36992;48.200;12.418;2022-08-19T06:41:19;2.10;;;1.20;;
50976;SDS011;36992;48.200;12.418;2022-08-19T06:43:45;1.55;;;0.95;;
50976;SDS011;36992;48.200;12.418;2022-08-19T06:46:16;1.90;;;1.08;;
50976;SDS011;36992;48.200;12.418;2022-08-19T06:48:44;2.22;;;1.27;;
50976;SDS011;36992;48.200;12.418;2022-08-19T06:51:10;1.95;;;1.17;;
50976;SDS011;36992;48.200;12.418;2022-08-19T06:53:40;2.58;;;1.20;;
50976;SDS011;36992;48.200;12.418;2022-08-19T06:56:12;1.65;;;0.90;;
50976;SDS011;36992;48.200;12.418;2022-08-19T06:58:40;1.63;;;1.08;;
50976;SDS011;36992;48.200;12.418;2022-08-19T07:01:07;1.90;;;0.95;;
50976;SDS011;36992;48.200;12.418;2022-08-19T07:03:36;2.28;;;0.98;;
50976;SDS011;36992;48.200;12.418;2022-08-19T07:06:04;1.67;;;0.93;;
50976;SDS011;36992;48.200;12.418;2022-08-19T07:08:33;1.75;;;0.65;;
50976;SDS011;36992;48.200;12.418;2022-08-19T07:11:01;2.22;;;0.93;;
50976;SDS011;36992;48.200;12.418;2022-08-19T07:13:28;2.10;;;1.10;;
50976;SDS011;36992;48.200;12.418;2022-08-19T07:16:02;2.25;;;0.85;;
50976;SDS011;36992;48.200;12.418;2022-08-19T07:18:29;1.25;;;0.70;;
50976;SDS011;36992;48.200;12.418;2022-08-19T07:21:03;1.33;;;0.70;;
50976;SDS011;36992;48.200;12.418;2022-08-19T07:23:30;1.27;;;0.73;;
50976;SDS011;36992;48.200;12.418;2022-08-19T07:25:57;1.83;;;1.05;;
50976;SDS011;36992;48.200;12.418;2022-08-19T07:28:24;1.70;;;1.00;;
50976;SDS011;36992;48.200;12.418;2022-08-19T07:30:50;2.00;;;1.30;;
50976;SDS011;36992;48.200;12.418;2022-08-19T07:33:17;2.08;;;1.13;;
50976;SDS011;36992;48.200;12.418;2022-08-19T07:35:44;4.07;;;1.50;;
50976;SDS011;36992;48.200;12.418;2022-08-19T07:38:12;2.50;;;1.27;;
50976;SDS011;36992;48.200;12.418;2022-08-19T07:40:39;2.60;;;1.30;;
50976;SDS011;36992;48.200;12.418;2022-08-19T07:43:08;2.50;;;1.50;;
50976;SDS011;36992;48.200;12.418;2022-08-19T07:45:34;1.85;;;1.17;;
50976;SDS011;36992;48.200;12.418;2022-08-19T07:48:01;3.22;;;1.90;;
50976;SDS011;36992;48.200;12.418;2022-08-19T07:50:28;2.67;;;1.67;;
50976;SDS011;36992;48.200;12.418;2022-08-19T07:52:55;2.63;;;1.73;;
50976;SDS011;36992;48.200;12.418;2022-08-19T07:55:24;3.63;;;1.98;;
50976;SDS011;36992;48.200;12.418;2022-08-19T07:57:51;4.65;;;2.28;;
50976;SDS011;36992;48.200;12.418;2022-08-19T08:00:18;2.50;;;1.70;;
50976;SDS011;36992;48.200;12.418;2022-08-19T08:02:45;5.07;;;3.00;;
50976;SDS011;36992;48.200;12.418;2022-08-19T08:05:12;6.03;;;3.72;;
50976;SDS011;36992;48.200;12.418;2022-08-19T08:07:56;3.40;;;2.08;;
50976;SDS011;36992;48.200;12.418;2022-08-19T08:10:41;4.03;;;2.72;;
50976;SDS011;36992;48.200;12.418;2022-08-19T08:13:08;5.00;;;3.65;;
50976;SDS011;36992;48.200;12.418;2022-08-19T08:15:34;2.65;;;1.83;;
50976;SDS011;36992;48.200;12.418;2022-08-19T08:18:03;3.33;;;2.38;;
50976;SDS011;36992;48.200;12.418;2022-08-19T08:20:29;5.63;;;3.83;;
50976;SDS011;36992;48.200;12.418;2022-08-19T08:22:56;4.18;;;3.00;;
50976;SDS011;36992;48.200;12.418;2022-08-19T08:25:42;3.00;;;1.90;;
50976;SDS011;36992;48.200;12.418;2022-08-19T08:28:08;2.95;;;1.80;;
50976;SDS011;36992;48.200;12.418;2022-08-19T08:30:35;2.53;;;1.67;;
50976;SDS011;36992;48.200;12.418;2022-08-19T08:33:06;3.08;;;1.63;;
50976;SDS011;36992;48.200;12.418;2022-08-19T08:35:32;1.90;;;1.10;;
50976;SDS011;36992;48.200;12.418;2022-08-19T08:37:59;2.15;;;1.02;;
50976;SDS011;36992;48.200;12.418;2022-08-19T08:40:27;2.15;;;0.88;;
50976;SDS011;36992;48.200;12.418;2022-08-19T08:42:59;2.25;;;1.08;;
50976;SDS011;36992;48.200;12.418;2022-08-19T08:45:33;2.15;;;1.45;;
50976;SDS011;36992;48.200;12.418;2022-08-19T08:48:04;2.50;;;1.30;;
50976;SDS011;36992;48.200;12.418;2022-08-19T08:50:40;2.55;;;1.38;;
50976;SDS011;36992;48.200;12.418;2022-08-19T08:53:16;2.67;;;1.50;;
50976;SDS011;36992;48.200;12.418;2022-08-19T08:55:45;4.07;;;1.40;;
50976;SDS011;36992;48.200;12.418;2022-08-19T08:58:14;3.63;;;1.52;;
50976;SDS011;36992;48.200;12.418;2022-08-19T09:01:01;2.15;;;1.10;;
50976;SDS011;36992;48.200;12.418;2022-08-19T09:03:31;3.67;;;1.45;;
50976;SDS011;36992;48.200;12.418;2022-08-19T09:05:59;3.05;;;1.83;;
50976;SDS011;36992;48.200;12.418;2022-08-19T09:08:33;2.67;;;1.55;;
50976;SDS011;36992;48.200;12.418;2022-08-19T09:11:08;2.03;;;1.15;;
50976;SDS011;36992;48.200;12.418;2022-08-19T09:13:41;4.15;;;1.75;;
50976;SDS011;36992;48.200;12.418;2022-08-19T09:16:16;4.70;;;2.60;;
50976;SDS011;36992;48.200;12.418;2022-08-19T09:18:47;3.65;;;2.50;;
50976;SDS011;36992;48.200;12.418;2022-08-19T09:21:18;4.20;;;2.85;;
50976;SDS011;36992;48.200;12.418;2022-08-19T09:23:45;2.40;;;1.60;;
50976;SDS011;36992;48.200;12.418;2022-08-19T09:26:13;2.30;;;1.30;;
50976;SDS011;36992;48.200;12.418;2022-08-19T09:28:43;4.65;;;2.22;;
50976;SDS011;36992;48.200;12.418;2022-08-19T09:31:11;2.75;;;1.38;;
50976;SDS011;36992;48.200;12.418;2022-08-19T09:33:38;2.47;;;1.40;;
50976;SDS011;36992;48.200;12.418;2022-08-19T09:36:06;5.80;;;2.08;;
50976;SDS011;36992;48.200;12.418;2022-08-19T09:38:34;1.88;;;1.30;;
50976;SDS011;36992;48.200;12.418;2022-08-19T09:41:02;1.50;;;0.90;;
50976;SDS011;36992;48.200;12.418;2022-08-19T09:43:30;2.95;;;1.60;;
50976;SDS011;36992;48.200;12.418;2022-08-19T09:48:53;2.58;;;1.33;;
50976;SDS011;36992;48.200;12.418;2022-08-19T09:51:52;1.38;;;0.98;;
50976;SDS011;36992;48.200;12.418;2022-08-19T09:54:32;2.00;;;1.25;;
50976;SDS011;36992;48.200;12.418;2022-08-19T09:57:02;3.95;;;1.90;;
50976;SDS011;36992;48.200;12.418;2022-08-19T09:59:55;2.78;;;1.80;;
50976;SDS011;36992;48.200;12.418;2022-08-19T10:06:04;1.92;;;0.95;;
50976;SDS011;36992;48.200;12.418;2022-08-19T10:08:44;1.60;;;1.00;;
50976;SDS011;36992;48.200;12.418;2022-08-19T10:11:30;1.67;;;0.60;;
50976;SDS011;36992;48.200;12.418;2022-08-19T10:17:52;4.22;;;1.35;;
50976;SDS011;36992;48.200;12.418;2022-08-19T10:20:20;1.98;;;1.27;;
50976;SDS011;36992;48.200;12.418;2022-08-19T10:25:32;2.03;;;1.30;;
50976;SDS011;36992;48.200;12.418;2022-08-19T10:28:08;2.20;;;1.38;;
50976;SDS011;36992;48.200;12.418;2022-08-19T10:30:36;1.77;;;1.20;;
50976;SDS011;36992;48.200;12.418;2022-08-19T10:33:05;3.20;;;1.30;;
50976;SDS011;36992;48.200;12.418;2022-08-19T10:35:33;2.10;;;1.40;;
50976;SDS011;36992;48.200;12.418;2022-08-19T10:38:01;3.92;;;1.45;;
50976;SDS011;36992;48.200;12.418;2022-08-19T10:40:28;2.40;;;1.10;;
50976;SDS011;36992;48.200;12.418;2022-08-19T10:42:54;2.45;;;1.65;;
50976;SDS011;36992;48.200;12.418;2022-08-19T10:45:21;2.30;;;1.85;;
50976;SDS011;36992;48.200;12.418;2022-08-19T10:47:50;2.47;;;1.83;;
50976;SDS011;36992;48.200;12.418;2022-08-19T10:50:18;3.00;;;1.70;;
50976;SDS011;36992;48.200;12.418;2022-08-19T10:53:04;3.58;;;2.42;;
50976;SDS011;36992;48.200;12.418;2022-08-19T10:55:33;4.20;;;2.08;;
50976;SDS011;36992;48.200;12.418;2022-08-19T10:58:19;2.00;;;1.35;;
50976;SDS011;36992;48.200;12.418;2022-08-19T11:00:51;1.92;;;1.27;;
50976;SDS011;36992;48.200;12.418;2022-08-19T11:03:19;2.78;;;0.95;;
50976;SDS011;36992;48.200;12.418;2022-08-19T11:05:45;1.90;;;1.00;;
50976;SDS011;36992;48.200;12.418;2022-08-19T11:08:15;1.58;;;0.77;;
50976;SDS011;36992;48.200;12.418;2022-08-19T11:10:41;1.45;;;0.80;;
50976;SDS011;36992;48.200;12.418;2022-08-19T11:13:09;1.45;;;0.90;;
50976;SDS011;36992;48.200;12.418;2022-08-19T11:15:35;2.85;;;1.60;;
50976;SDS011;36992;48.200;12.418;2022-08-19T11:18:02;2.20;;;1.52;;
50976;SDS011;36992;48.200;12.418;2022-08-19T11:20:30;2.83;;;1.92;;
50976;SDS011;36992;48.200;12.418;2022-08-19T11:22:57;1.58;;;0.85;;
50976;SDS011;36992;48.200;12.418;2022-08-19T11:25:24;2.38;;;1.40;;
50976;SDS011;36992;48.200;12.418;2022-08-19T11:27:51;2.47;;;1.60;;
50976;SDS011;36992;48.200;12.418;2022-08-19T11:30:17;3.70;;;1.58;;
50976;SDS011;36992;48.200;12.418;2022-08-19T11:32:44;8.07;;;2.20;;
50976;SDS011;36992;48.200;12.418;2022-08-19T11:35:11;2.83;;;1.92;;
50976;SDS011;36992;48.200;12.418;2022-08-19T11:37:37;2.42;;;1.55;;
50976;SDS011;36992;48.200;12.418;2022-08-19T11:40:05;2.58;;;1.80;;
50976;SDS011;36992;48.200;12.418;2022-08-19T11:42:33;3.60;;;2.55;;
50976;SDS011;36992;48.200;12.418;2022-08-19T11:45:17;3.53;;;2.22;;
50976;SDS011;36992;48.200;12.418;2022-08-19T11:47:44;3.88;;;2.67;;
50976;SDS011;36992;48.200;12.418;2022-08-19T11:50:11;2.92;;;1.92;;
50976;SDS011;36992;48.200;12.418;2022-08-19T11:52:38;4.45;;;2.70;;
50976;SDS011;36992;48.200;12.418;2022-08-19T11:55:05;2.67;;;2.13;;
50976;SDS011;36992;48.200;12.418;2022-08-19T11:57:34;3.97;;;2.60;;
50976;SDS011;36992;48.200;12.418;2022-08-19T12:00:00;3.15;;;1.80;;
50976;SDS011;36992;48.200;12.418;2022-08-19T12:02:28;3.78;;;2.28;;
50976;SDS011;36992;48.200;12.418;2022-08-19T12:04:54;3.33;;;2.38;;
50976;SDS011;36992;48.200;12.418;2022-08-19T12:07:21;4.28;;;2.70;;
50976;SDS011;36992;48.200;12.418;2022-08-19T12:09:47;3.92;;;2.47;;
50976;SDS011;36992;48.200;12.418;2022-08-19T12:12:14;3.90;;;2.92;;
50976;SDS011;36992;48.200;12.418;2022-08-19T12:14:42;3.35;;;2.38;;
50976;SDS011;36992;48.200;12.418;2022-08-19T12:17:10;4.68;;;3.67;;
50976;SDS011;36992;48.200;12.418;2022-08-19T12:19:38;5.40;;;4.40;;
50976;SDS011;36992;48.200;12.418;2022-08-19T12:22:04;5.32;;;4.18;;
50976;SDS011;36992;48.200;12.418;2022-08-19T12:24:32;5.10;;;3.53;;
50976;SDS011;36992;48.200;12.418;2022-08-19T12:26:59;4.47;;;3.28;;
50976;SDS011;36992;48.200;12.418;2022-08-19T12:29:27;5.45;;;3.70;;
50976;SDS011;36992;48.200;12.418;2022-08-19T12:31:55;7.13;;;4.07;;
50976;SDS011;36992;48.200;12.418;2022-08-19T12:34:26;5.30;;;4.13;;
50976;SDS011;36992;48.200;12.418;2022-08-19T12:36:55;3.60;;;2.92;;
50976;SDS011;36992;48.200;12.418;2022-08-19T12:39:22;4.00;;;3.03;;
50976;SDS011;36992;48.200;12.418;2022-08-19T12:41:49;3.83;;;3.03;;
50976;SDS011;36992;48.200;12.418;2022-08-19T12:44:16;3.33;;;2.30;;
50976;SDS011;36992;48.200;12.418;2022-08-19T12:46:42;5.88;;;4.32;;
50976;SDS011;36992;48.200;12.418;2022-08-19T12:49:10;6.72;;;3.42;;
50976;SDS011;36992;48.200;12.418;2022-08-19T12:51:37;4.25;;;3.38;;
50976;SDS011;36992;48.200;12.418;2022-08-19T12:54:03;5.32;;;3.85;;
50976;SDS011;36992;48.200;12.418;2022-08-19T12:56:31;4.07;;;3.13;;
50976;SDS011;36992;48.200;12.418;2022-08-19T12:59:00;4.70;;;3.40;;
50976;SDS011;36992;48.200;12.418;2022-08-19T13:01:27;4.55;;;2.70;;
50976;SDS011;36992;48.200;12.418;2022-08-19T13:03:57;4.35;;;3.60;;
50976;SDS011;36992;48.200;12.418;2022-08-19T13:06:25;6.80;;;3.38;;
50976;SDS011;36992;48.200;12.418;2022-08-19T13:08:51;12.05;;;4.07;;
50976;SDS011;36992;48.200;12.418;2022-08-19T13:11:19;3.35;;;2.60;;
50976;SDS011;36992;48.200;12.418;2022-08-19T13:13:49;4.40;;;3.45;;
50976;SDS011;36992;48.200;12.418;2022-08-19T13:16:18;5.18;;;2.97;;
50976;SDS011;36992;48.200;12.418;2022-08-19T13:18:46;20.02;;;3.85;;
50976;SDS011;36992;48.200;12.418;2022-08-19T13:21:16;7.63;;;2.60;;
50976;SDS011;36992;48.200;12.418;2022-08-19T13:23:46;3.08;;;2.20;;
50976;SDS011;36992;48.200;12.418;2022-08-19T13:26:13;3.28;;;2.58;;
50976;SDS011;36992;48.200;12.418;2022-08-19T13:28:40;9.70;;;2.55;;
50976;SDS011;36992;48.200;12.418;2022-08-19T13:31:26;3.25;;;2.20;;
50976;SDS011;36992;48.200;12.418;2022-08-19T13:34:10;3.63;;;2.70;;
50976;SDS011;36992;48.200;12.418;2022-08-19T13:36:37;6.55;;;4.10;;
50976;SDS011;36992;48.200;12.418;2022-08-19T13:39:06;5.72;;;3.65;;
50976;SDS011;36992;48.200;12.418;2022-08-19T13:41:33;4.28;;;2.92;;
50976;SDS011;36992;48.200;12.418;2022-08-19T13:44:00;3.95;;;2.85;;
50976;SDS011;36992;48.200;12.418;2022-08-19T13:46:27;5.88;;;3.63;;
50976;SDS011;36992;48.200;12.418;2022-08-19T13:48:55;4.32;;;2.90;;
50976;SDS011;36992;48.200;12.418;2022-08-19T13:51:22;4.63;;;3.22;;
50976;SDS011;36992;48.200;12.418;2022-08-19T13:53:49;31.15;;;6.10;;
50976;SDS011;36992;48.200;12.418;2022-08-19T13:56:17;6.72;;;3.92;;
50976;SDS011;36992;48.200;12.418;2022-08-19T13:58:45;4.88;;;3.10;;
50976;SDS011;36992;48.200;12.418;2022-08-19T14:01:12;5.88;;;3.80;;
50976;SDS011;36992;48.200;12.418;2022-08-19T14:03:38;7.18;;;3.58;;
50976;SDS011;36992;48.200;12.418;2022-08-19T14:06:05;4.90;;;3.60;;
50976;SDS011;36992;48.200;12.418;2022-08-19T14:08:31;6.88;;;5.05;;
50976;SDS011;36992;48.200;12.418;2022-08-19T14:10:58;7.32;;;4.68;;
50976;SDS011;36992;48.200;12.418;2022-08-19T14:13:26;6.32;;;4.97;;
50976;SDS011;36992;48.200;12.418;2022-08-19T14:15:53;6.30;;;4.03;;
50976;SDS011;36992;48.200;12.418;2022-08-19T14:18:19;7.22;;;5.53;;
50976;SDS011;36992;48.200;12.418;2022-08-19T14:20:46;7.15;;;5.80;;
50976;SDS011;36992;48.200;12.418;2022-08-19T14:23:13;7.13;;;5.15;;
50976;SDS011;36992;48.200;12.418;2022-08-19T14:25:39;7.20;;;5.60;;
50976;SDS011;36992;48.200;12.418;2022-08-19T14:28:06;7.78;;;5.47;;
50976;SDS011;36992;48.200;12.418;2022-08-19T14:30:34;8.13;;;5.65;;
50976;SDS011;36992;48.200;12.418;2022-08-19T14:33:03;7.88;;;6.13;;
50976;SDS011;36992;48.200;12.418;2022-08-19T14:35:32;19.88;;;5.93;;
50976;SDS011;36992;48.200;12.418;2022-08-19T14:37:59;6.05;;;4.15;;
50976;SDS011;36992;48.200;12.418;2022-08-19T14:40:28;6.28;;;4.15;;
50976;SDS011;36992;48.200;12.418;2022-08-19T14:42:56;4.50;;;2.78;;
50976;SDS011;36992;48.200;12.418;2022-08-19T14:45:26;4.03;;;2.90;;
50976;SDS011;36992;48.200;12.418;2022-08-19T14:47:55;4.32;;;2.25;;
50976;SDS011;36992;48.200;12.418;2022-08-19T14:50:22;3.45;;;1.65;;
50976;SDS011;36992;48.200;12.418;2022-08-19T14:52:49;2.28;;;1.50;;
50976;SDS011;36992;48.200;12.418;2022-08-19T14:55:16;3.03;;;1.50;;
50976;SDS011;36992;48.200;12.418;2022-08-19T14:57:43;2.47;;;1.52;;